Time;durP1;ratioP1;P1;durP2;ratioP2;P2;SDS_P1;SDS_P2;PMS_P1;PMS_P2;Temp;Humidity;BMP_temperature;BMP_pressure;BME280_temperature;BME280_humidity;BME280_pressure;Samples;Min_cycle;Max_cycle;Signal;HPM_P1;HPM_P2
2022/02/01 00:00:11;;;;;;;1.20;0.90;;;2.30;99.90;;;;;;5012190;28;20026;-74
2022/02/01 00:02:44;;;;;;;1.48;0.93;;;2.30;99.90;;;;;;5010096;28;20018;-74
2022/02/01 00:05:17;;;;;;;1.15;1.10;;;2.30;99.90;;;;;;5013237;28;20484;-74
2022/02/01 00:07:53;;;;;;;1.00;1.00;;;2.30;99.90;;;;;;5010215;28;20026;-75
2022/02/01 00:13:33;;;;;;;0.90;0.90;;;2.20;99.90;;;;;;5012980;28;20041;-75
2022/02/01 00:18:58;;;;;;;1.23;1.13;;;2.10;99.90;;;;;;5004528;28;20017;-73
2022/02/01 00:38:03;;;;;;;1.65;1.55;;;2.10;99.90;;;;;;5012165;28;20113;-74
2022/02/01 00:40:29;;;;;;;2.05;1.90;;;2.00;99.90;;;;;;5009622;28;20057;-74
2022/02/01 00:42:54;;;;;;;2.10;2.00;;;2.10;99.90;;;;;;5012567;28;20045;-73
2022/02/01 00:45:20;;;;;;;2.28;2.08;;;2.10;99.90;;;;;;5009318;28;20053;-74
2022/02/01 00:47:46;;;;;;;3.10;2.80;;;2.00;99.90;;;;;;5013337;28;20026;-74
2022/02/01 00:50:14;;;;;;;2.75;2.55;;;2.00;99.90;;;;;;5014428;28;20105;-73
2022/02/01 00:52:40;;;;;;;2.70;2.50;;;2.00;99.90;;;;;;5014491;28;20010;-73
2022/02/01 00:55:07;;;;;;;3.95;3.55;;;2.00;99.90;;;;;;5012269;28;20021;-74
2022/02/01 00:57:32;;;;;;;3.75;3.45;;;2.00;99.90;;;;;;5014222;28;20025;-74
2022/02/01 00:59:58;;;;;;;3.90;3.50;;;1.90;99.90;;;;;;5009414;28;20464;-74
2022/02/01 01:02:23;;;;;;;3.78;3.47;;;1.80;99.90;;;;;;5013879;28;20440;-74
2022/02/01 01:04:49;;;;;;;4.00;3.58;;;1.80;99.90;;;;;;5010096;28;20427;-74
2022/02/01 01:07:14;;;;;;;4.70;4.15;;;1.70;99.90;;;;;;5009219;28;20118;-74
2022/02/01 01:09:40;;;;;;;5.20;4.70;;;1.70;99.90;;;;;;5014128;28;20101;-74
2022/02/01 01:12:06;;;;;;;4.70;4.20;;;1.70;99.90;;;;;;5015373;28;20109;-74
2022/02/01 01:17:47;;;;;;;5.45;4.90;;;1.60;99.90;;;;;;5014532;28;20543;-74
2022/02/01 01:44:59;;;;;;;6.95;5.80;;;1.60;99.90;;;;;;5013233;28;20029;-74
2022/02/01 01:55:24;;;;;;;6.35;5.60;;;1.40;99.90;;;;;;5012857;28;20026;-75
2022/02/01 01:57:50;;;;;;;6.00;5.40;;;1.40;99.90;;;;;;5013015;28;20076;-75
2022/02/01 02:00:33;;;;;;;6.80;5.97;;;1.40;99.90;;;;;;5012583;28;20065;-76
2022/02/01 02:02:59;;;;;;;7.00;6.25;;;1.40;99.90;;;;;;5012855;28;20017;-75
2022/02/01 02:05:24;;;;;;;8.82;6.57;;;1.40;99.90;;;;;;5013281;28;20033;-76
2022/02/01 02:07:51;;;;;;;7.53;6.82;;;1.30;99.90;;;;;;5011722;28;20022;-74
2022/02/01 02:10:17;;;;;;;8.50;7.60;;;1.30;99.90;;;;;;5011147;28;20087;-74
2022/02/01 02:12:59;;;;;;;8.23;7.03;;;1.30;99.90;;;;;;4993718;28;20056;-75
2022/02/01 02:15:34;;;;;;;8.68;7.63;;;1.40;99.90;;;;;;4991523;28;20053;-75
2022/02/01 02:18:01;;;;;;;8.33;7.50;;;1.40;99.90;;;;;;4997880;28;20503;-74
2022/02/01 02:20:41;;;;;;;8.13;6.95;;;1.40;99.90;;;;;;5000875;28;20400;-75
2022/02/01 02:23:08;;;;;;;8.05;7.20;;;1.40;99.90;;;;;;5012486;28;20034;-75
2022/02/01 02:25:37;;;;;;;7.85;7.05;;;1.40;99.90;;;;;;5001085;28;20058;-74
2022/02/01 02:28:04;;;;;;;8.52;7.70;;;1.40;99.90;;;;;;4995683;28;20022;-75
2022/02/01 02:30:30;;;;;;;9.00;6.90;;;1.40;99.90;;;;;;5004451;28;20107;-74
2022/02/01 02:33:01;;;;;;;9.23;7.78;;;1.40;99.90;;;;;;5012220;28;20061;-75
2022/02/01 02:35:31;;;;;;;10.07;8.32;;;1.40;99.90;;;;;;5004347;28;20172;-75
2022/02/01 02:37:57;;;;;;;8.35;7.47;;;1.40;99.90;;;;;;5012301;28;20379;-75
2022/02/01 02:40:43;;;;;;;10.02;7.97;;;1.30;99.90;;;;;;5010839;28;20033;-76
2022/02/01 02:45:52;;;;;;;10.00;7.38;;;1.40;99.90;;;;;;4998852;28;20040;-76
2022/02/01 02:48:17;;;;;;;8.63;7.45;;;1.40;99.90;;;;;;5012112;28;20034;-76
2022/02/01 02:50:44;;;;;;;7.70;6.90;;;1.40;99.90;;;;;;4998410;28;20025;-76
2022/02/01 02:53:09;;;;;;;8.52;7.40;;;1.50;99.90;;;;;;5012032;28;20487;-76
2022/02/01 02:55:35;;;;;;;10.15;7.72;;;1.50;99.90;;;;;;5010801;28;20030;-75
2022/02/01 02:58:00;;;;;;;8.98;7.32;;;1.50;99.90;;;;;;5000730;28;20027;-76
2022/02/01 03:00:26;;;;;;;10.88;8.23;;;1.50;99.90;;;;;;5008471;28;20503;-76
2022/02/01 03:02:52;;;;;;;8.68;7.15;;;1.50;99.90;;;;;;4998010;28;20023;-76
2022/02/01 03:05:18;;;;;;;8.40;7.35;;;1.40;99.90;;;;;;4995487;28;20050;-75
2022/02/01 03:07:43;;;;;;;8.65;7.50;;;1.40;99.90;;;;;;4994819;28;20060;-76
2022/02/01 03:10:09;;;;;;;10.93;7.90;;;1.50;99.90;;;;;;5009752;28;20468;-75
2022/02/01 03:15:35;;;;;;;9.70;8.50;;;1.40;99.90;;;;;;5023517;28;20061;-73
2022/02/01 03:20:41;;;;;;;9.70;8.63;;;1.40;99.90;;;;;;5011718;28;20517;-73
2022/02/01 03:23:06;;;;;;;10.35;9.13;;;1.40;99.90;;;;;;4990126;28;20027;-73
2022/02/01 03:25:32;;;;;;;11.02;8.63;;;1.40;99.90;;;;;;4955425;28;20037;-73
2022/02/01 03:27:57;;;;;;;10.30;9.00;;;1.40;99.90;;;;;;4981755;28;20034;-74
2022/02/01 03:30:23;;;;;;;13.07;10.07;;;1.50;99.90;;;;;;5003621;28;20522;-73
2022/02/01 03:32:49;;;;;;;9.88;8.73;;;1.40;99.90;;;;;;4976981;28;20022;-73
2022/02/01 03:35:15;;;;;;;9.88;8.88;;;1.40;99.90;;;;;;4991960;28;20101;-73
2022/02/01 03:37:41;;;;;;;10.48;8.95;;;1.40;99.90;;;;;;4992042;28;20395;-74
2022/02/01 03:40:11;;;;;;;10.95;8.93;;;1.40;99.90;;;;;;4974864;28;20027;-74
2022/02/01 03:42:37;;;;;;;10.60;9.48;;;1.40;99.90;;;;;;4974598;28;20034;-77
2022/02/01 03:45:03;;;;;;;9.25;8.35;;;1.40;99.90;;;;;;4974661;28;20109;-75
2022/02/01 03:47:32;;;;;;;9.60;8.60;;;1.40;99.90;;;;;;4993836;28;20399;-77
2022/02/01 03:49:59;;;;;;;9.88;8.00;;;1.40;99.90;;;;;;4977343;28;20027;-76
2022/02/01 03:52:25;;;;;;;8.65;7.75;;;1.40;99.90;;;;;;4972770;28;20412;-77
2022/02/01 03:54:50;;;;;;;9.40;8.40;;;1.40;99.90;;;;;;4986913;28;20025;-77
2022/02/01 03:57:16;;;;;;;10.40;8.70;;;1.60;99.90;;;;;;4982967;28;20022;-77
2022/02/01 03:59:45;;;;;;;9.95;8.52;;;1.50;99.90;;;;;;5003289;28;20029;-78
2022/02/01 04:02:11;;;;;;;11.43;8.43;;;1.50;99.90;;;;;;4980701;28;20506;-78
2022/02/01 04:04:37;;;;;;;9.82;7.95;;;1.50;99.90;;;;;;4995413;28;20539;-77
2022/02/01 04:07:04;;;;;;;10.32;8.05;;;1.40;99.90;;;;;;4995554;28;20113;-77
2022/02/01 04:09:31;;;;;;;11.00;8.57;;;1.40;99.90;;;;;;4995713;28;20158;-78
2022/02/01 04:11:59;;;;;;;11.18;8.50;;;1.40;99.90;;;;;;4995297;28;20029;-78
2022/02/01 04:14:29;;;;;;;9.70;8.70;;;1.30;99.90;;;;;;4995436;28;20100;-77
2022/02/01 04:16:56;;;;;;;12.77;9.30;;;1.20;99.90;;;;;;4995204;28;20550;-75
2022/02/01 04:19:21;;;;;;;11.63;9.38;;;1.20;99.90;;;;;;4977723;28;20409;-75
2022/02/01 04:21:58;;;;;;;12.00;9.60;;;1.30;99.90;;;;;;4977756;28;20029;-77
2022/02/01 04:24:23;;;;;;;12.60;9.50;;;1.20;99.90;;;;;;4995148;28;20049;-76
2022/02/01 04:26:49;;;;;;;12.27;9.88;;;1.10;99.90;;;;;;4977494;28;20396;-74
2022/02/01 04:29:14;;;;;;;12.57;10.55;;;1.10;99.90;;;;;;4977410;28;20026;-73
2022/02/01 04:31:40;;;;;;;14.65;11.20;;;1.00;99.90;;;;;;4994696;28;20018;-74
2022/02/01 04:34:05;;;;;;;14.75;11.57;;;0.90;99.90;;;;;;4994754;28;20387;-74
2022/02/01 04:36:31;;;;;;;14.82;11.52;;;0.80;99.90;;;;;;4994852;28;20058;-74
2022/02/01 04:38:57;;;;;;;15.25;11.68;;;0.90;99.90;;;;;;4994709;28;20050;-75
2022/02/01 04:41:25;;;;;;;15.13;12.05;;;0.80;99.90;;;;;;4983457;28;20546;-75
2022/02/01 04:43:51;;;;;;;15.75;12.15;;;0.90;99.90;;;;;;5002315;28;20021;-74
2022/02/01 04:46:16;;;;;;;18.13;14.02;;;0.80;99.90;;;;;;4991718;28;20041;-74
2022/02/01 04:48:42;;;;;;;19.00;13.77;;;0.80;99.90;;;;;;4986571;28;20014;-75
2022/02/01 04:51:08;;;;;;;20.23;14.57;;;0.70;99.90;;;;;;4986108;28;20054;-74
2022/02/01 04:53:34;;;;;;;21.23;15.05;;;0.70;99.90;;;;;;4989809;28;20279;-74
2022/02/01 04:55:59;;;;;;;19.67;15.02;;;0.60;99.90;;;;;;4994565;28;20061;-74
2022/02/01 04:58:26;;;;;;;22.75;16.25;;;0.70;99.90;;;;;;4984841;28;20026;-75
2022/02/01 05:00:53;;;;;;;25.40;16.17;;;0.70;99.90;;;;;;5003078;28;20018;-75
2022/02/01 05:03:19;;;;;;;24.60;16.73;;;0.70;99.90;;;;;;5005819;28;20018;-75
2022/02/01 05:05:45;;;;;;;22.00;16.40;;;0.60;99.90;;;;;;4992324;28;20507;-75
2022/02/01 05:08:12;;;;;;;22.45;16.52;;;0.60;99.90;;;;;;4996040;28;20034;-75
2022/02/01 05:10:39;;;;;;;26.75;17.35;;;0.60;99.90;;;;;;5005955;28;20045;-75
2022/02/01 05:16:00;;;;;;;25.33;17.27;;;0.60;99.90;;;;;;4993884;28;20030;-75
2022/02/01 05:18:28;;;;;;;27.88;18.17;;;0.70;99.90;;;;;;4994152;28;20471;-75
2022/02/01 05:21:02;;;;;;;25.05;18.17;;;0.70;99.90;;;;;;4963544;28;20154;-75
2022/02/01 05:23:28;;;;;;;24.98;17.33;;;0.70;99.90;;;;;;4987053;28;20021;-74
2022/02/01 05:25:54;;;;;;;26.75;19.55;;;0.70;99.90;;;;;;4996925;28;20023;-75
2022/02/01 05:28:20;;;;;;;26.60;18.52;;;0.90;99.90;;;;;;4993690;28;20026;-74
2022/02/01 05:30:46;;;;;;;30.10;20.75;;;0.70;99.90;;;;;;4993639;28;20472;-74
2022/02/01 05:33:11;;;;;;;29.73;20.60;;;0.80;99.90;;;;;;4976456;28;20045;-75
2022/02/01 05:35:37;;;;;;;31.73;20.90;;;0.70;99.90;;;;;;4963473;28;20029;-76
2022/02/01 05:38:03;;;;;;;37.42;22.70;;;0.70;99.90;;;;;;4969352;28;20033;-75
2022/02/01 05:40:28;;;;;;;31.52;20.77;;;0.70;99.90;;;;;;4969980;28;20024;-75
2022/02/01 05:43:04;;;;;;;32.90;22.08;;;0.70;99.90;;;;;;4976263;28;20158;-75
2022/02/01 05:45:33;;;;;;;35.40;22.02;;;0.70;99.90;;;;;;4992002;28;20032;-75
2022/02/01 05:48:01;;;;;;;35.78;21.95;;;0.60;99.90;;;;;;4966124;28;20026;-74
2022/02/01 05:50:27;;;;;;;34.40;22.70;;;0.60;99.90;;;;;;4990610;28;20387;-74
2022/02/01 05:52:53;;;;;;;28.83;19.95;;;0.70;99.90;;;;;;4975995;28;20033;-74
2022/02/01 05:55:18;;;;;;;27.00;19.10;;;0.70;99.90;;;;;;4975887;28;20117;-74
2022/02/01 05:57:44;;;;;;;22.95;17.45;;;0.80;99.90;;;;;;4976000;28;20030;-74
2022/02/01 06:00:10;;;;;;;24.05;17.35;;;0.90;99.90;;;;;;4973688;28;20121;-74
2022/02/01 06:02:35;;;;;;;25.25;16.42;;;0.90;99.90;;;;;;4982695;28;20475;-74
2022/02/01 06:05:01;;;;;;;23.42;16.95;;;0.90;99.90;;;;;;4962686;28;20078;-74
2022/02/01 06:07:26;;;;;;;36.20;27.73;;;1.00;99.90;;;;;;4984669;28;20031;-74
2022/02/01 06:09:52;;;;;;;21.23;15.80;;;1.00;99.90;;;;;;4969428;28;20026;-74
2022/02/01 06:12:18;;;;;;;20.23;14.90;;;1.00;99.90;;;;;;4981920;28;20027;-74
2022/02/01 06:14:43;;;;;;;43.60;35.08;;;1.10;99.90;;;;;;4962755;28;20121;-75
2022/02/01 06:17:09;;;;;;;48.30;41.10;;;1.10;99.90;;;;;;4984855;28;20071;-74
2022/02/01 06:19:34;;;;;;;19.55;14.63;;;1.10;99.90;;;;;;4988529;28;20476;-75
2022/02/01 06:22:02;;;;;;;19.05;13.13;;;1.10;99.90;;;;;;4984649;28;20030;-74
2022/02/01 06:24:28;;;;;;;16.17;12.35;;;1.10;99.90;;;;;;4968722;28;20026;-74
2022/02/01 06:26:53;;;;;;;18.88;15.52;;;1.10;99.90;;;;;;4997813;28;20109;-74
2022/02/01 06:29:19;;;;;;;23.25;14.52;;;1.20;99.90;;;;;;4975342;28;20078;-75
2022/02/01 06:31:44;;;;;;;24.33;21.80;;;1.20;99.90;;;;;;4966773;28;20023;-74
2022/02/01 06:34:10;;;;;;;15.77;11.40;;;1.10;99.90;;;;;;4986509;28;20026;-75
2022/02/01 06:36:35;;;;;;;16.73;11.15;;;1.10;99.90;;;;;;4981771;28;20041;-74
2022/02/01 06:39:01;;;;;;;17.23;11.68;;;1.10;99.90;;;;;;4979950;28;20492;-75
2022/02/01 06:41:26;;;;;;;16.90;11.82;;;1.10;99.90;;;;;;4984229;28;20042;-74
2022/02/01 06:43:52;;;;;;;19.20;10.88;;;1.10;99.90;;;;;;4986195;28;20022;-74
2022/02/01 06:46:19;;;;;;;20.08;10.63;;;1.20;99.90;;;;;;4964031;28;20036;-74
2022/02/01 06:48:44;;;;;;;15.30;9.38;;;1.10;99.90;;;;;;4979647;28;20025;-75
2022/02/01 06:51:10;;;;;;;16.88;9.38;;;1.20;99.90;;;;;;4983687;28;20114;-74
2022/02/01 06:53:37;;;;;;;16.42;9.60;;;1.20;99.90;;;;;;4972886;28;20403;-75
2022/02/01 06:56:09;;;;;;;19.02;8.40;;;1.20;99.90;;;;;;5000153;28;20106;-74
2022/02/01 06:58:34;;;;;;;16.58;9.73;;;1.20;99.90;;;;;;4979579;28;20516;-74
2022/02/01 07:01:00;;;;;;;15.75;8.13;;;1.20;99.90;;;;;;4983218;28;20029;-75
2022/02/01 07:03:26;;;;;;;14.82;8.48;;;1.20;99.90;;;;;;4985946;28;20125;-74
2022/02/01 07:05:52;;;;;;;18.08;7.57;;;1.20;99.90;;;;;;4982288;28;20034;-74
2022/02/01 07:08:18;;;;;;;19.13;8.40;;;1.40;99.90;;;;;;4979377;28;20434;-74
2022/02/01 07:10:43;;;;;;;17.05;7.95;;;1.20;99.90;;;;;;4983049;28;20118;-74
2022/02/01 07:13:09;;;;;;;16.02;7.55;;;1.20;99.90;;;;;;4968423;28;20062;-74
2022/02/01 07:15:35;;;;;;;13.52;6.50;;;1.20;99.90;;;;;;4982226;28;20026;-73
2022/02/01 07:18:00;;;;;;;15.02;6.40;;;1.20;99.90;;;;;;4992252;28;20423;-74
2022/02/01 07:20:26;;;;;;;19.55;7.45;;;1.30;99.90;;;;;;4965217;28;20031;-75
2022/02/01 07:22:52;;;;;;;13.95;6.32;;;1.30;99.90;;;;;;4985859;28;20038;-74
2022/02/01 07:25:31;;;;;;;18.48;5.97;;;1.30;99.90;;;;;;4964789;28;20034;-76
2022/02/01 07:28:04;;;;;;;12.85;5.78;;;1.30;99.90;;;;;;4961766;28;20396;-75
2022/02/01 07:30:30;;;;;;;20.77;7.47;;;1.30;99.90;;;;;;4990931;28;20129;-76
2022/02/01 07:32:58;;;;;;;18.17;5.97;;;1.40;99.90;;;;;;4991707;28;20034;-75
2022/02/01 07:35:25;;;;;;;16.05;6.70;;;1.30;99.90;;;;;;4982768;28;20021;-75
2022/02/01 07:37:52;;;;;;;18.85;6.43;;;1.30;99.90;;;;;;4993646;28;20022;-75
2022/02/01 07:40:18;;;;;;;19.63;6.13;;;1.30;99.90;;;;;;4995512;28;20065;-75
2022/02/01 07:42:44;;;;;;;18.95;5.95;;;1.40;99.90;;;;;;4994177;28;20034;-75
2022/02/01 07:45:12;;;;;;;20.50;6.53;;;1.30;99.90;;;;;;4995661;28;20399;-75
2022/02/01 07:47:37;;;;;;;19.15;6.10;;;1.40;99.90;;;;;;4999123;28;20517;-76
2022/02/01 07:50:05;;;;;;;21.13;5.90;;;1.40;99.90;;;;;;4992246;28;20106;-75
2022/02/01 07:52:31;;;;;;;18.27;5.90;;;1.40;99.90;;;;;;4995501;28;20519;-76
2022/02/01 07:54:57;;;;;;;17.27;5.53;;;1.40;99.90;;;;;;4995315;28;20018;-75
2022/02/01 07:57:22;;;;;;;22.67;6.38;;;1.40;99.90;;;;;;4995542;28;20551;-76
2022/02/01 07:59:48;;;;;;;21.27;6.68;;;1.40;99.90;;;;;;4995488;28;20131;-76
2022/02/01 08:02:19;;;;;;;18.63;6.47;;;1.40;99.90;;;;;;4983343;28;20741;-74
2022/02/01 08:04:46;;;;;;;21.52;6.00;;;1.40;99.90;;;;;;4995204;28;20049;-74
2022/02/01 08:07:12;;;;;;;25.67;6.15;;;1.40;99.90;;;;;;4995290;28;20488;-74
2022/02/01 08:09:41;;;;;;;19.13;5.97;;;1.40;99.90;;;;;;4994046;28;20137;-74
2022/02/01 08:12:21;;;;;;;20.88;5.80;;;1.40;99.90;;;;;;4994287;28;20399;-74
2022/02/01 08:15:45;;;;;;;28.73;6.63;;;1.40;99.90;;;;;;4994533;28;20093;-74
2022/02/01 08:20:06;;;;;;;19.63;6.00;;;1.40;99.90;;;;;;4994507;28;20269;-74
2022/02/01 08:22:59;;;;;;;19.90;5.97;;;1.40;99.90;;;;;;4993815;28;20049;-74
2022/02/01 08:25:24;;;;;;;18.83;6.47;;;1.30;99.90;;;;;;4994640;28;20081;-74
2022/02/01 08:27:52;;;;;;;25.48;7.00;;;1.40;99.90;;;;;;4975000;28;20077;-74
2022/02/01 08:30:18;;;;;;;21.10;7.30;;;1.30;99.90;;;;;;4976836;28;20050;-73
2022/02/01 08:32:43;;;;;;;23.52;7.03;;;1.30;99.90;;;;;;4994444;28;20050;-74
2022/02/01 08:35:09;;;;;;;20.17;6.53;;;1.40;99.90;;;;;;4994393;28;20026;-74
2022/02/01 08:37:35;;;;;;;23.15;7.20;;;1.40;99.90;;;;;;4976412;28;20022;-74
2022/02/01 08:40:01;;;;;;;18.13;6.38;;;1.40;99.90;;;;;;4976758;28;20022;-74
2022/02/01 08:42:27;;;;;;;27.58;7.40;;;1.50;99.90;;;;;;4993783;28;20433;-74
2022/02/01 08:44:53;;;;;;;20.05;6.82;;;1.50;99.90;;;;;;4993902;28;20069;-74
2022/02/01 08:47:19;;;;;;;26.70;7.53;;;1.50;99.90;;;;;;4993873;28;20018;-74
2022/02/01 08:49:45;;;;;;;27.52;7.47;;;1.50;99.90;;;;;;4992466;28;20073;-74
2022/02/01 08:52:20;;;;;;;22.13;7.68;;;1.50;99.90;;;;;;4993623;28;20026;-73
2022/02/01 08:54:51;;;;;;;18.40;6.68;;;1.60;99.90;;;;;;4993951;28;20057;-73
2022/02/01 08:57:22;;;;;;;21.48;7.15;;;1.60;99.90;;;;;;4991506;28;20030;-74
2022/02/01 08:59:50;;;;;;;23.15;7.22;;;1.70;99.90;;;;;;4991017;28;20023;-74
2022/02/01 09:02:17;;;;;;;25.60;7.45;;;1.70;99.90;;;;;;4975577;28;20080;-73
2022/02/01 09:04:43;;;;;;;20.10;7.05;;;1.70;99.90;;;;;;4993901;28;20399;-73
2022/02/01 09:07:09;;;;;;;25.20;7.68;;;1.80;99.90;;;;;;4977657;28;20037;-74
2022/02/01 09:09:36;;;;;;;25.25;6.68;;;1.80;99.90;;;;;;4993833;28;20019;-74
2022/02/01 09:12:02;;;;;;;20.63;7.82;;;1.80;99.90;;;;;;4993851;28;20026;-74
2022/02/01 09:14:29;;;;;;;25.08;7.78;;;1.80;99.90;;;;;;4976932;28;20022;-74
2022/02/01 09:16:54;;;;;;;20.67;7.43;;;1.80;99.90;;;;;;4993938;28;20030;-74
2022/02/01 09:19:20;;;;;;;21.63;7.05;;;1.80;99.90;;;;;;4993963;28;20049;-74
2022/02/01 09:21:46;;;;;;;22.60;7.60;;;1.80;99.90;;;;;;4993703;28;20105;-74
2022/02/01 09:24:11;;;;;;;18.73;7.85;;;2.00;99.90;;;;;;4977197;28;20029;-74
2022/02/01 09:26:42;;;;;;;24.33;7.05;;;1.90;99.90;;;;;;4993890;28;20026;-74
2022/02/01 09:29:08;;;;;;;18.08;7.35;;;2.00;99.90;;;;;;4993665;28;20018;-74
2022/02/01 09:31:34;;;;;;;22.48;7.60;;;2.00;99.90;;;;;;4994931;28;20049;-74
2022/02/01 09:34:00;;;;;;;19.83;6.90;;;2.00;99.90;;;;;;4993469;28;20097;-74
2022/02/01 09:36:26;;;;;;;18.10;7.65;;;2.00;99.90;;;;;;4993666;28;20026;-74
2022/02/01 09:38:54;;;;;;;20.27;7.35;;;2.00;99.90;;;;;;4993499;28;20081;-74
2022/02/01 09:41:20;;;;;;;22.63;7.80;;;2.00;99.90;;;;;;4993383;28;20046;-74
2022/02/01 09:43:45;;;;;;;16.42;7.20;;;2.00;99.90;;;;;;4993500;28;20116;-74
2022/02/01 09:46:11;;;;;;;20.88;8.00;;;2.00;99.90;;;;;;4993300;28;20042;-74
2022/02/01 09:48:37;;;;;;;18.58;7.50;;;2.00;99.90;;;;;;4993270;28;20045;-74
2022/02/01 09:51:04;;;;;;;17.25;7.13;;;2.00;99.90;;;;;;5000218;28;20105;-74
2022/02/01 09:53:30;;;;;;;19.45;7.80;;;2.00;99.90;;;;;;4983909;28;20020;-74
2022/02/01 09:55:56;;;;;;;19.98;7.82;;;2.00;99.90;;;;;;4993201;28;20022;-75
2022/02/01 09:58:32;;;;;;;20.10;7.88;;;2.00;99.90;;;;;;4993247;28;20028;-74
2022/02/01 10:00:59;;;;;;;20.83;8.25;;;2.00;99.90;;;;;;4994668;28;20026;-74
2022/02/01 10:03:25;;;;;;;18.02;7.88;;;2.10;99.90;;;;;;4979626;28;20022;-74
2022/02/01 10:06:07;;;;;;;19.10;6.63;;;1.90;99.90;;;;;;4992999;28;20026;-74
2022/02/01 10:08:33;;;;;;;18.50;7.15;;;1.90;99.90;;;;;;4972502;28;20384;-74
2022/02/01 10:10:59;;;;;;;21.48;7.20;;;2.00;99.90;;;;;;4992815;28;20073;-74
2022/02/01 10:13:25;;;;;;;20.00;7.32;;;1.90;99.90;;;;;;4992850;28;20388;-74
2022/02/01 10:16:14;;;;;;;23.95;7.35;;;1.90;99.90;;;;;;4980351;28;20025;-74
2022/02/01 10:18:40;;;;;;;21.58;7.60;;;1.90;99.90;;;;;;4987992;28;20501;-74
2022/02/01 10:21:11;;;;;;;18.88;7.72;;;2.00;99.90;;;;;;4992674;28;20117;-74
2022/02/01 10:23:39;;;;;;;17.38;7.15;;;2.00;99.90;;;;;;4992675;28;20026;-74
2022/02/01 10:26:10;;;;;;;20.55;7.65;;;2.00;99.90;;;;;;4974194;28;20110;-73
2022/02/01 10:31:32;;;;;;;24.83;7.00;;;2.00;99.90;;;;;;4992877;28;20046;-74
2022/02/01 10:34:04;;;;;;;15.02;5.75;;;2.00;99.90;;;;;;4992378;28;20805;-74
2022/02/01 10:36:38;;;;;;;14.48;5.38;;;2.10;99.90;;;;;;4976174;28;20392;-74
2022/02/01 10:39:15;;;;;;;20.45;6.43;;;2.10;99.90;;;;;;4992404;28;20022;-74
2022/02/01 10:41:54;;;;;;;17.23;5.93;;;2.10;99.90;;;;;;4992365;28;20392;-74
2022/02/01 10:44:22;;;;;;;17.98;5.50;;;2.10;99.90;;;;;;4991429;28;20023;-73
2022/02/01 10:46:52;;;;;;;17.45;5.03;;;2.10;99.90;;;;;;4974907;28;20062;-74
2022/02/01 10:49:29;;;;;;;21.23;5.20;;;2.20;99.90;;;;;;4992171;28;20042;-74
2022/02/01 10:52:05;;;;;;;16.80;5.80;;;2.30;99.90;;;;;;4989459;28;20018;-74
2022/02/01 10:54:33;;;;;;;18.48;5.45;;;2.20;99.90;;;;;;4991130;28;20472;-74
2022/02/01 10:57:00;;;;;;;18.35;4.95;;;2.20;99.90;;;;;;4992134;28;20026;-74
2022/02/01 10:59:25;;;;;;;21.27;5.15;;;2.20;99.90;;;;;;4992401;28;20037;-74
2022/02/01 11:01:54;;;;;;;17.33;4.75;;;2.20;99.90;;;;;;4991936;28;20023;-73
2022/02/01 11:04:21;;;;;;;18.73;5.38;;;2.30;99.90;;;;;;4992096;28;20149;-74
2022/02/01 11:06:51;;;;;;;17.55;4.75;;;2.20;99.90;;;;;;4991292;28;20034;-74
2022/02/01 11:09:20;;;;;;;13.88;4.57;;;2.20;99.90;;;;;;4975663;28;20042;-74
2022/02/01 11:12:05;;;;;;;16.33;4.90;;;2.20;99.90;;;;;;4991405;28;20022;-75
2022/02/01 11:14:56;;;;;;;15.85;5.35;;;2.20;99.90;;;;;;4991723;28;20026;-75
2022/02/01 11:17:22;;;;;;;16.02;4.55;;;2.30;99.90;;;;;;4976010;28;20034;-75
2022/02/01 11:19:55;;;;;;;11.15;4.57;;;2.30;99.90;;;;;;4992046;28;20476;-75
2022/02/01 11:22:26;;;;;;;13.98;5.00;;;2.40;99.90;;;;;;4984639;28;20097;-75
2022/02/01 11:24:58;;;;;;;14.43;5.25;;;2.50;99.90;;;;;;4991949;28;20476;-75
2022/02/01 11:27:37;;;;;;;19.70;5.32;;;2.50;99.90;;;;;;4976000;28;20377;-75
2022/02/01 11:30:12;;;;;;;14.52;4.38;;;2.60;99.90;;;;;;4990142;28;20022;-75
2022/02/01 11:32:52;;;;;;;16.08;4.50;;;2.80;99.90;;;;;;4982587;28;20098;-75
2022/02/01 11:35:23;;;;;;;16.20;4.53;;;2.70;99.90;;;;;;4984221;28;20018;-75
2022/02/01 11:37:59;;;;;;;20.33;5.05;;;2.60;99.90;;;;;;4975992;28;20032;-76
2022/02/01 11:40:24;;;;;;;;;;;2.70;99.90;;;;;;4993561;28;20122;-75
2022/02/01 11:42:57;;;;;;;12.33;4.33;;;2.80;99.90;;;;;;4977617;28;19953;-76
2022/02/01 11:45:32;;;;;;;12.88;4.35;;;2.60;99.90;;;;;;4989574;28;20042;-76
2022/02/01 11:47:58;;;;;;;15.05;4.18;;;2.70;99.90;;;;;;4990868;28;20061;-76
2022/02/01 11:50:27;;;;;;;15.07;4.28;;;2.70;99.90;;;;;;4976641;28;20018;-75
2022/02/01 11:52:56;;;;;;;12.60;4.32;;;2.70;99.90;;;;;;4991775;28;20524;-75
2022/02/01 11:55:28;;;;;;;10.77;4.10;;;2.70;99.90;;;;;;4991740;28;20534;-76
2022/02/01 11:58:00;;;;;;;15.15;4.30;;;2.70;99.90;;;;;;4991456;28;20102;-76
2022/02/01 12:00:27;;;;;;;11.43;3.70;;;2.70;99.90;;;;;;4990806;28;20088;-75
2022/02/01 12:03:01;;;;;;;13.23;4.28;;;2.60;99.90;;;;;;4990838;28;20026;-75
2022/02/01 12:05:30;;;;;;;12.50;4.30;;;2.60;99.90;;;;;;4991059;28;20103;-77
2022/02/01 12:08:04;;;;;;;12.40;4.20;;;2.70;99.90;;;;;;4976664;28;20026;-75
2022/02/01 12:10:51;;;;;;;22.02;4.82;;;2.70;99.90;;;;;;4980188;28;20026;-74
2022/02/01 12:13:20;;;;;;;13.10;4.53;;;2.70;99.90;;;;;;4970377;28;20042;-74
2022/02/01 12:15:48;;;;;;;12.40;3.80;;;2.60;99.90;;;;;;4991574;28;20023;-74
2022/02/01 12:18:41;;;;;;;11.93;4.13;;;2.70;99.90;;;;;;4981669;28;20033;-74
2022/02/01 12:21:15;;;;;;;9.43;3.97;;;2.70;99.90;;;;;;4990091;28;20027;-74
2022/02/01 12:23:49;;;;;;;9.90;3.90;;;2.60;99.90;;;;;;4992889;28;20026;-74
2022/02/01 12:26:19;;;;;;;9.80;3.40;;;2.60;99.90;;;;;;4994702;28;20030;-74
2022/02/01 12:28:45;;;;;;;12.57;4.40;;;2.60;99.90;;;;;;4993614;28;20018;-74
2022/02/01 12:31:13;;;;;;;9.40;3.70;;;2.60;99.90;;;;;;4979937;28;20030;-74
2022/02/01 12:33:42;;;;;;;8.32;3.42;;;2.60;99.90;;;;;;4994770;28;20053;-74
2022/02/01 12:36:09;;;;;;;11.70;4.20;;;2.60;99.90;;;;;;4994814;28;20072;-74
2022/02/01 12:38:35;;;;;;;11.43;3.85;;;2.60;99.90;;;;;;4995439;28;20015;-74
2022/02/01 12:41:12;;;;;;;10.73;3.72;;;2.50;99.90;;;;;;4989617;28;20026;-74
2022/02/01 12:45:46;;;;;;;13.02;4.55;;;2.40;99.90;;;;;;4982204;28;20019;-74
2022/02/01 12:46:53;;;;;;;14.45;4.25;;;2.40;99.90;;;;;;4994327;28;20034;-74
2022/02/01 12:49:20;;;;;;;12.32;3.78;;;2.30;99.90;;;;;;4983314;28;20018;-74
2022/02/01 12:51:50;;;;;;;12.10;4.25;;;2.20;99.90;;;;;;4980710;28;20019;-74
2022/02/01 12:54:27;;;;;;;12.82;5.07;;;2.10;99.90;;;;;;4979461;28;20113;-74
2022/02/01 12:57:09;;;;;;;15.23;4.65;;;2.00;99.90;;;;;;4994654;28;20435;-74
2022/02/01 12:59:37;;;;;;;10.63;3.97;;;2.00;99.90;;;;;;4994301;28;20018;-74
2022/02/01 13:02:12;;;;;;;13.30;4.82;;;2.00;99.90;;;;;;4994006;28;20049;-74
2022/02/01 13:04:38;;;;;;;10.93;4.18;;;2.00;99.90;;;;;;4993083;28;20559;-73
2022/02/01 13:07:14;;;;;;;12.93;4.50;;;2.00;99.90;;;;;;4994114;28;20384;-73
2022/02/01 13:15:24;;;;;;;14.30;5.55;;;2.00;99.90;;;;;;4993862;28;20041;-74
2022/02/01 13:18:11;;;;;;;11.75;4.97;;;2.00;99.90;;;;;;4977625;28;20030;-74
2022/02/01 13:20:40;;;;;;;12.68;5.18;;;2.00;99.90;;;;;;4993699;28;20484;-73
2022/02/01 13:23:06;;;;;;;11.32;4.88;;;2.00;99.90;;;;;;4993814;28;20033;-73
2022/02/01 13:25:45;;;;;;;13.18;5.47;;;2.00;99.90;;;;;;4993912;28;20026;-73
2022/02/01 13:28:13;;;;;;;13.00;5.68;;;2.00;99.90;;;;;;4993729;28;20488;-75
2022/02/01 13:30:41;;;;;;;13.23;5.15;;;2.00;99.90;;;;;;4976001;28;20061;-75
2022/02/01 13:33:16;;;;;;;11.02;5.85;;;1.90;99.90;;;;;;4997478;28;20031;-75
2022/02/01 13:35:53;;;;;;;14.47;5.67;;;2.00;99.90;;;;;;4991751;28;20431;-75
2022/02/01 13:38:22;;;;;;;16.70;6.25;;;1.90;99.90;;;;;;4995159;28;20025;-75
2022/02/01 13:40:49;;;;;;;12.35;5.90;;;1.80;99.90;;;;;;4980092;28;20088;-75
2022/02/01 13:43:22;;;;;;;14.00;5.80;;;1.80;99.90;;;;;;4995145;28;20018;-74
2022/02/01 13:45:49;;;;;;;12.15;6.47;;;1.80;99.90;;;;;;4993956;28;20022;-73
2022/02/01 13:48:23;;;;;;;14.57;6.63;;;1.80;99.90;;;;;;4993446;28;20038;-73
2022/02/01 13:50:50;;;;;;;8.73;5.32;;;1.80;99.90;;;;;;4993411;28;20042;-75
2022/02/01 13:53:17;;;;;;;13.23;6.25;;;1.80;99.90;;;;;;4996662;28;20109;-75
2022/02/01 13:55:44;;;;;;;10.95;4.78;;;1.80;99.90;;;;;;4994213;28;20428;-75
2022/02/01 13:58:17;;;;;;;8.68;4.78;;;1.80;99.90;;;;;;4987677;28;20065;-75
2022/02/01 14:00:45;;;;;;;13.52;5.28;;;1.80;99.90;;;;;;4990091;28;20050;-75
2022/02/01 14:03:33;;;;;;;8.63;4.93;;;1.80;99.90;;;;;;4993144;28;20027;-74
2022/02/01 14:06:14;;;;;;;9.93;4.45;;;1.80;99.90;;;;;;4991430;28;20097;-73
2022/02/01 14:08:58;;;;;;;9.65;4.50;;;1.80;99.90;;;;;;4992702;28;20038;-73
2022/02/01 14:11:50;;;;;;;12.73;5.18;;;1.80;99.90;;;;;;4987717;28;20081;-75
2022/02/01 14:14:32;;;;;;;6.80;4.63;;;1.80;99.90;;;;;;4970807;28;20113;-75
2022/02/01 14:25:38;;;;;;;8.27;4.60;;;1.80;99.90;;;;;;4992735;28;20030;-75